createdAt,value
2023-03-12T00:00:09.004Z,6.68
2023-03-12T00:02:36.298Z,6.72
2023-03-12T00:05:04.262Z,6.50
2023-03-12T00:07:31.401Z,7.07
2023-03-12T00:09:58.389Z,6.30
2023-03-12T00:12:25.490Z,7.03
2023-03-12T00:14:52.485Z,6.43
2023-03-12T00:17:19.469Z,7.40
2023-03-12T00:19:46.419Z,9.13
2023-03-12T00:22:14.162Z,9.98
2023-03-12T00:24:41.140Z,5.60
2023-03-12T00:27:08.181Z,7.22
2023-03-12T00:29:36.173Z,6.72
2023-03-12T00:32:03.204Z,7.50
2023-03-12T00:34:30.187Z,6.38
2023-03-12T00:36:57.190Z,8.52
2023-03-12T00:39:24.233Z,6.07
2023-03-12T00:41:51.273Z,7.65
2023-03-12T00:44:19.937Z,6.65
2023-03-12T00:46:46.916Z,7.97
2023-03-12T00:49:14.268Z,7.30
2023-03-12T00:51:41.471Z,7.70
2023-03-12T00:54:08.485Z,9.30
2023-03-12T00:56:35.651Z,8.40
2023-03-12T00:59:02.843Z,5.82
2023-03-12T01:01:29.847Z,8.00
2023-03-12T01:03:59.877Z,10.20
2023-03-12T01:06:27.247Z,6.82
2023-03-12T01:08:58.911Z,6.53
2023-03-12T01:11:25.917Z,7.60
2023-03-12T01:13:52.887Z,14.65
2023-03-12T01:16:19.997Z,9.30
2023-03-12T01:18:46.954Z,7.38
2023-03-12T01:21:14.013Z,8.05
2023-03-12T01:23:40.933Z,7.60
2023-03-12T01:26:07.868Z,8.25
2023-03-12T01:28:34.862Z,6.93
2023-03-12T01:31:16.079Z,7.35
2023-03-12T01:33:43.107Z,8.57
2023-03-12T01:36:21.216Z,6.70
2023-03-12T01:38:52.423Z,7.25
2023-03-12T01:41:21.676Z,11.38
2023-03-12T01:43:49.194Z,8.02
2023-03-12T01:46:19.148Z,6.95
2023-03-12T01:48:54.699Z,7.07
2023-03-12T01:51:28.414Z,7.68
2023-03-12T01:54:02.207Z,7.50
2023-03-12T01:56:36.653Z,8.73
2023-03-12T01:59:15.705Z,8.20
2023-03-12T02:01:44.394Z,7.32
2023-03-12T02:04:14.681Z,7.95
2023-03-12T02:07:05.240Z,5.53
2023-03-12T02:09:36.498Z,5.55
2023-03-12T02:12:03.629Z,5.30
2023-03-12T02:14:31.195Z,6.28
2023-03-12T02:16:58.598Z,7.85
2023-03-12T02:20:01.354Z,4.47
2023-03-12T02:22:29.953Z,6.45
2023-03-12T02:25:28.329Z,5.43
2023-03-12T02:27:58.493Z,5.45
2023-03-12T02:30:28.823Z,6.03
2023-03-12T02:32:58.399Z,5.05
2023-03-12T02:35:25.693Z,3.97
2023-03-12T02:37:56.017Z,4.68
2023-03-12T02:40:39.013Z,8.43
2023-03-12T02:43:10.177Z,8.63
2023-03-12T02:45:39.249Z,9.15
2023-03-12T02:48:09.648Z,6.55
2023-03-12T02:50:36.678Z,9.30
2023-03-12T02:53:04.511Z,7.70
2023-03-12T02:55:32.023Z,5.93
2023-03-12T02:57:59.080Z,6.60
2023-03-12T03:00:26.321Z,7.72
2023-03-12T03:02:54.471Z,10.52
2023-03-12T03:05:24.195Z,6.63
2023-03-12T03:07:51.254Z,5.78
2023-03-12T03:10:18.518Z,9.10
2023-03-12T03:12:45.517Z,8.15
2023-03-12T03:15:13.121Z,8.55
2023-03-12T03:17:40.605Z,8.50
2023-03-12T03:20:11.375Z,7.40
2023-03-12T03:22:39.346Z,6.68
2023-03-12T03:25:09.899Z,6.75
2023-03-12T03:27:37.169Z,8.27
2023-03-12T03:30:05.845Z,8.88
2023-03-12T03:32:36.250Z,6.78
2023-03-12T03:35:03.593Z,6.18
2023-03-12T03:37:30.822Z,5.88
2023-03-12T03:39:58.012Z,8.82
2023-03-12T03:42:25.520Z,6.75
2023-03-12T03:44:52.577Z,8.75
2023-03-12T03:47:19.804Z,6.05
2023-03-12T03:49:46.957Z,8.98
2023-03-12T03:52:14.043Z,9.10
2023-03-12T03:54:41.052Z,5.63
2023-03-12T03:57:08.515Z,5.68
2023-03-12T03:59:35.969Z,8.52
2023-03-12T04:02:03.238Z,7.03
2023-03-12T04:04:33.808Z,8.15
2023-03-12T04:07:00.746Z,5.53
2023-03-12T04:09:27.747Z,7.28
2023-03-12T04:11:54.722Z,5.55
2023-03-12T04:14:21.841Z,4.85
2023-03-12T04:16:48.759Z,6.53
2023-03-12T04:19:15.800Z,6.20
2023-03-12T04:21:43.080Z,4.63
2023-03-12T04:24:16.886Z,7.93
2023-03-12T04:26:44.665Z,6.00
2023-03-12T04:29:12.193Z,4.03
2023-03-12T04:31:40.503Z,7.85
2023-03-12T04:34:07.561Z,4.70
2023-03-12T04:36:34.587Z,9.38
2023-03-12T04:39:07.207Z,4.72
2023-03-12T04:41:35.942Z,7.00
2023-03-12T04:44:14.076Z,8.45
2023-03-12T04:46:43.404Z,6.30
2023-03-12T04:49:13.736Z,8.93
2023-03-12T04:51:42.209Z,6.05
2023-03-12T04:54:09.411Z,9.38
2023-03-12T04:56:38.059Z,10.13
2023-03-12T04:59:05.629Z,6.85
2023-03-12T05:01:36.418Z,4.85
2023-03-12T05:04:08.374Z,9.02
2023-03-12T05:06:35.854Z,7.97
2023-03-12T05:09:03.900Z,8.07
2023-03-12T05:11:31.400Z,5.93
2023-03-12T05:13:58.501Z,11.82
2023-03-12T05:16:26.001Z,7.05
2023-03-12T05:18:53.274Z,9.93
2023-03-12T05:21:22.331Z,9.05
2023-03-12T05:23:52.866Z,8.05
2023-03-12T05:26:25.850Z,8.25
2023-03-12T05:28:59.115Z,5.85
2023-03-12T05:31:27.291Z,6.13
2023-03-12T05:33:54.784Z,9.05
2023-03-12T05:36:22.952Z,5.32
2023-03-12T05:38:50.138Z,6.30
2023-03-12T05:41:26.642Z,11.40
2023-03-12T05:43:57.805Z,6.85
2023-03-12T05:46:26.957Z,4.78
2023-03-12T05:48:54.810Z,7.63
2023-03-12T05:51:22.493Z,8.70
2023-03-12T05:53:50.252Z,8.32
2023-03-12T05:56:18.443Z,7.07
2023-03-12T05:58:49.788Z,6.43
2023-03-12T06:01:27.256Z,6.15
2023-03-12T06:03:56.788Z,6.25
2023-03-12T06:06:25.767Z,7.85
2023-03-12T06:08:53.593Z,6.07
2023-03-12T06:11:20.583Z,8.15
2023-03-12T06:13:48.313Z,6.95
2023-03-12T06:16:26.381Z,6.22
2023-03-12T06:19:03.595Z,6.15
2023-03-12T06:21:34.553Z,5.97
2023-03-12T06:24:02.902Z,6.22
2023-03-12T06:26:37.128Z,7.43
2023-03-12T06:29:04.172Z,7.40
2023-03-12T06:31:31.304Z,5.60
2023-03-12T06:33:58.458Z,5.90
2023-03-12T06:36:25.627Z,9.77
2023-03-12T06:38:53.030Z,5.75
2023-03-12T06:41:21.332Z,10.43
2023-03-12T06:43:48.617Z,8.13
2023-03-12T06:46:21.959Z,6.55
2023-03-12T06:48:49.076Z,10.48
2023-03-12T06:51:17.361Z,7.32
2023-03-12T06:53:46.187Z,5.97
2023-03-12T06:56:14.214Z,7.72
2023-03-12T06:58:42.028Z,5.47
2023-03-12T07:01:09.684Z,11.35
2023-03-12T07:03:36.745Z,8.57
2023-03-12T07:06:04.472Z,7.60
2023-03-12T07:08:31.474Z,11.98
2023-03-12T07:11:01.620Z,7.93
2023-03-12T07:13:30.312Z,10.70
2023-03-12T07:15:57.651Z,10.55
2023-03-12T07:18:24.696Z,10.63
2023-03-12T07:20:52.907Z,10.60
2023-03-12T07:23:20.815Z,9.55
2023-03-12T07:25:48.100Z,9.88
2023-03-12T07:28:17.260Z,9.35
2023-03-12T07:30:53.019Z,10.32
2023-03-12T07:33:21.957Z,8.93
2023-03-12T07:35:51.696Z,10.23
2023-03-12T07:38:19.808Z,9.85
2023-03-12T07:40:58.718Z,16.60
2023-03-12T07:43:26.295Z,16.27
2023-03-12T07:45:55.343Z,17.75
2023-03-12T07:48:22.605Z,16.92
2023-03-12T07:50:49.701Z,21.48
2023-03-12T07:53:17.389Z,26.05
2023-03-12T07:55:46.719Z,11.88
2023-03-12T07:58:16.001Z,13.40
2023-03-12T08:00:43.648Z,23.98
2023-03-12T08:03:11.131Z,27.90
2023-03-12T08:05:38.362Z,35.90
2023-03-12T08:08:05.767Z,22.88
2023-03-12T08:10:32.995Z,27.65
2023-03-12T08:13:00.180Z,22.25
2023-03-12T08:15:27.154Z,11.25
2023-03-12T08:17:54.204Z,10.70
2023-03-12T08:20:21.565Z,13.68
2023-03-12T08:22:48.639Z,9.95
2023-03-12T08:25:16.095Z,11.55
2023-03-12T08:27:43.133Z,10.75
2023-03-12T08:30:11.201Z,7.28
2023-03-12T08:32:38.487Z,9.93
2023-03-12T08:35:06.137Z,10.52
2023-03-12T08:37:33.290Z,9.73
2023-03-12T08:40:00.479Z,10.65
2023-03-12T08:42:27.823Z,9.70
2023-03-12T08:44:54.810Z,7.22
2023-03-12T08:47:21.866Z,16.40
2023-03-12T08:49:48.803Z,14.05
2023-03-12T08:52:15.831Z,13.07
2023-03-12T08:54:42.966Z,9.43
2023-03-12T08:57:10.622Z,9.25
2023-03-12T08:59:37.669Z,8.18
2023-03-12T09:02:05.210Z,81.28
2023-03-12T09:04:32.507Z,13.00
2023-03-12T09:07:01.569Z,10.57
2023-03-12T09:09:28.678Z,10.73
2023-03-12T09:11:56.145Z,9.88
2023-03-12T09:17:10.709Z,9.90
2023-03-12T09:19:37.742Z,8.75
2023-03-12T09:22:04.810Z,9.75
2023-03-12T09:24:31.929Z,11.55
2023-03-12T09:26:59.122Z,9.52
2023-03-12T09:29:26.385Z,12.68
2023-03-12T09:31:53.744Z,12.55
2023-03-12T09:34:20.777Z,9.57
2023-03-12T09:36:47.765Z,11.75
2023-03-12T09:39:14.806Z,11.23
2023-03-12T09:41:47.733Z,12.48
2023-03-12T09:44:26.369Z,11.48
2023-03-12T09:47:02.737Z,14.52
2023-03-12T09:49:42.873Z,13.88
2023-03-12T09:52:44.591Z,15.70
2023-03-12T09:55:17.066Z,14.48
2023-03-12T09:57:46.046Z,18.38
2023-03-12T10:00:20.711Z,14.98
2023-03-12T10:03:12.359Z,14.38
2023-03-12T10:06:14.693Z,18.05
2023-03-12T10:09:29.293Z,19.80
2023-03-12T10:12:23.160Z,16.10
2023-03-12T10:15:32.292Z,17.83
2023-03-12T10:18:24.814Z,16.83
2023-03-12T10:21:08.959Z,18.13
2023-03-12T10:23:58.605Z,18.92
2023-03-12T10:26:37.926Z,19.55
2023-03-12T10:29:24.700Z,16.88
2023-03-12T10:32:04.318Z,23.20
2023-03-12T10:34:42.821Z,18.15
2023-03-12T10:37:22.608Z,19.15
2023-03-12T10:39:51.531Z,19.92
2023-03-12T10:42:25.655Z,16.30
2023-03-12T10:44:58.646Z,18.85
2023-03-12T10:47:31.550Z,18.20
2023-03-12T10:50:20.994Z,16.67
2023-03-12T10:52:52.015Z,23.58
2023-03-12T10:55:30.388Z,23.63
2023-03-12T10:57:57.833Z,20.83
2023-03-12T11:00:32.255Z,22.55
2023-03-12T11:05:37.120Z,20.23
2023-03-12T11:08:19.194Z,19.42
2023-03-12T11:10:47.640Z,20.00
2023-03-12T11:13:39.875Z,18.23
2023-03-12T11:16:16.013Z,18.75
2023-03-12T11:19:02.045Z,20.80
2023-03-12T11:21:32.376Z,18.20
2023-03-12T11:23:59.320Z,19.70
2023-03-12T11:26:36.844Z,18.30
2023-03-12T11:29:48.679Z,19.45
2023-03-12T11:32:29.445Z,32.58
2023-03-12T11:34:56.997Z,26.85
2023-03-12T11:37:55.823Z,81.00
2023-03-12T11:41:10.505Z,37.15
2023-03-12T11:43:53.983Z,22.65
2023-03-12T11:46:53.007Z,22.67
2023-03-12T11:49:39.191Z,23.67
2023-03-12T11:52:45.603Z,21.30
2023-03-12T11:55:43.512Z,19.67
2023-03-12T11:58:44.991Z,14.60
2023-03-12T12:01:55.458Z,20.30
2023-03-12T12:04:52.067Z,25.80
2023-03-12T12:07:54.413Z,18.08
2023-03-12T12:10:51.792Z,20.73
2023-03-12T12:14:04.086Z,19.75
2023-03-12T12:17:27.858Z,17.85
2023-03-12T12:20:15.853Z,18.58
2023-03-12T12:23:19.737Z,24.25
2023-03-12T12:26:18.154Z,21.40
2023-03-12T12:29:25.663Z,21.13
2023-03-12T12:31:58.728Z,23.40
2023-03-12T12:34:58.042Z,22.50
2023-03-12T12:38:16.653Z,47.90
2023-03-12T12:40:54.691Z,30.40
2023-03-12T12:43:38.400Z,26.67
2023-03-12T12:46:14.546Z,26.45
2023-03-12T12:48:56.974Z,27.58
2023-03-12T12:51:32.155Z,19.98
2023-03-12T12:54:31.034Z,21.38
2023-03-12T12:57:10.113Z,24.13
2023-03-12T13:00:14.683Z,28.80
2023-03-12T13:02:46.769Z,23.33
2023-03-12T13:05:26.440Z,25.15
2023-03-12T13:07:53.678Z,24.45
2023-03-12T13:10:33.006Z,24.23
2023-03-12T13:13:22.487Z,23.92
2023-03-12T13:15:49.981Z,22.80
2023-03-12T13:18:29.206Z,24.75
2023-03-12T13:21:56.427Z,29.05
2023-03-12T13:24:36.982Z,25.65
2023-03-12T13:27:30.333Z,23.65
2023-03-12T13:29:57.951Z,23.52
2023-03-12T13:32:59.077Z,27.55
2023-03-12T13:35:29.651Z,25.75
2023-03-12T13:38:03.817Z,26.38
2023-03-12T13:40:38.679Z,27.35
2023-03-12T13:43:30.197Z,26.33
2023-03-12T13:46:06.967Z,30.50
2023-03-12T13:48:44.191Z,28.90
2023-03-12T13:51:24.905Z,25.83
2023-03-12T13:54:04.609Z,27.38
2023-03-12T13:56:33.755Z,23.95
2023-03-12T13:59:17.904Z,28.40
2023-03-12T14:01:53.834Z,26.67
2023-03-12T14:04:30.570Z,25.30
2023-03-12T14:07:31.761Z,25.38
2023-03-12T14:10:42.240Z,25.63
2023-03-12T14:13:15.168Z,27.88
2023-03-12T14:16:19.755Z,22.60
2023-03-12T14:18:49.185Z,22.30
2023-03-12T14:21:18.661Z,22.23
2023-03-12T14:24:08.507Z,17.45
2023-03-12T14:26:37.148Z,28.70
2023-03-12T14:29:21.139Z,15.95
2023-03-12T14:31:49.883Z,19.52
2023-03-12T14:34:29.128Z,25.17
2023-03-12T14:37:32.021Z,18.23
2023-03-12T14:40:07.222Z,16.60
2023-03-12T14:42:36.345Z,22.00
2023-03-12T14:45:06.257Z,22.83
2023-03-12T14:47:44.217Z,22.00
2023-03-12T14:50:22.864Z,17.58
2023-03-12T14:52:50.399Z,26.33
2023-03-12T14:55:23.998Z,23.67
2023-03-12T14:58:14.506Z,24.63
2023-03-12T15:00:45.877Z,26.50
2023-03-12T15:03:17.504Z,19.95
2023-03-12T15:05:49.923Z,20.35
2023-03-12T15:08:18.582Z,22.15
2023-03-12T15:10:55.893Z,26.50
2023-03-12T15:13:26.244Z,22.23
2023-03-12T15:15:56.014Z,25.23
2023-03-12T15:18:29.086Z,23.52
2023-03-12T15:20:59.046Z,23.15
2023-03-12T15:23:32.066Z,25.75
2023-03-12T15:26:29.629Z,26.73
2023-03-12T15:29:01.468Z,19.92
2023-03-12T15:31:45.591Z,19.27
2023-03-12T15:34:36.252Z,24.38
2023-03-12T15:37:41.179Z,20.95
2023-03-12T15:40:25.037Z,25.40
2023-03-12T15:42:57.425Z,23.50
2023-03-12T15:45:42.499Z,25.73
2023-03-12T15:48:39.652Z,23.80
2023-03-12T15:51:25.823Z,23.25
2023-03-12T15:54:27.489Z,24.60
2023-03-12T15:56:55.496Z,22.83
2023-03-12T15:59:28.517Z,26.13
2023-03-12T16:01:57.167Z,24.55
2023-03-12T16:04:24.711Z,23.45
2023-03-12T16:06:53.396Z,21.52
2023-03-12T16:09:27.156Z,25.65
2023-03-12T16:11:56.633Z,25.92
2023-03-12T16:14:34.572Z,25.88
2023-03-12T16:17:01.689Z,26.50
2023-03-12T16:19:33.679Z,24.77
2023-03-12T16:22:00.681Z,23.48
2023-03-12T16:24:27.653Z,29.50
2023-03-12T16:26:58.640Z,26.67
2023-03-12T16:29:35.678Z,27.95
2023-03-12T16:32:11.919Z,27.90
2023-03-12T16:34:39.020Z,30.10
2023-03-12T16:37:10.007Z,25.42
2023-03-12T16:39:37.054Z,22.45
2023-03-12T16:42:16.354Z,27.00
2023-03-12T16:44:46.334Z,27.25
2023-03-12T16:47:14.627Z,23.48
2023-03-12T16:49:44.865Z,26.65
2023-03-12T16:52:28.377Z,25.25
2023-03-12T16:54:55.396Z,26.00
2023-03-12T16:57:33.278Z,27.77
2023-03-12T17:00:03.147Z,30.30
2023-03-12T17:02:30.234Z,31.70
2023-03-12T17:04:57.664Z,25.55
2023-03-12T17:07:24.688Z,22.70
2023-03-12T17:09:51.613Z,26.83
2023-03-12T17:12:38.586Z,24.25
2023-03-12T17:15:14.012Z,29.88
2023-03-12T17:17:41.569Z,24.55
2023-03-12T17:20:13.475Z,29.48
2023-03-12T17:22:40.977Z,27.73
2023-03-12T17:25:20.147Z,28.60
2023-03-12T17:27:47.282Z,30.60
2023-03-12T17:30:15.011Z,29.08
2023-03-12T17:32:42.186Z,24.30
2023-03-12T17:35:23.270Z,28.05
2023-03-12T17:37:51.004Z,26.30
2023-03-12T17:40:18.152Z,27.40
2023-03-12T17:42:45.168Z,21.77
2023-03-12T17:45:12.424Z,18.40
2023-03-12T17:47:39.498Z,29.52
2023-03-12T17:50:08.411Z,21.33
2023-03-12T17:52:35.506Z,28.80
2023-03-12T17:55:03.375Z,21.85
2023-03-12T17:57:30.477Z,20.80
2023-03-12T17:59:57.485Z,25.35
2023-03-12T18:02:25.367Z,27.40
2023-03-12T18:04:52.660Z,25.15
2023-03-12T18:07:19.648Z,29.65
2023-03-12T18:09:46.798Z,26.05
2023-03-12T18:12:13.899Z,20.83
2023-03-12T18:14:40.901Z,24.75
2023-03-12T18:17:07.909Z,21.08
2023-03-12T18:19:35.614Z,22.98
2023-03-12T18:22:02.801Z,20.40
2023-03-12T18:24:30.051Z,26.00
2023-03-12T18:26:59.209Z,26.75
2023-03-12T18:29:26.626Z,20.40
2023-03-12T18:31:53.776Z,22.38
2023-03-12T18:34:20.934Z,26.17
2023-03-12T18:36:47.878Z,25.70
2023-03-12T18:39:15.095Z,24.20
2023-03-12T18:41:42.275Z,19.08
2023-03-12T18:44:09.578Z,25.85
2023-03-12T18:46:36.627Z,28.23
2023-03-12T18:49:07.690Z,22.67
2023-03-12T18:51:35.684Z,18.98
2023-03-12T18:54:02.694Z,22.13
2023-03-12T18:56:30.066Z,21.95
2023-03-12T18:58:58.062Z,25.20
2023-03-12T19:01:26.144Z,26.52
2023-03-12T19:03:53.224Z,26.90
2023-03-12T19:06:20.200Z,26.17
2023-03-12T19:08:47.186Z,30.08
2023-03-12T19:11:16.623Z,25.13
2023-03-12T19:13:43.934Z,23.58
2023-03-12T19:16:16.155Z,28.15
2023-03-12T19:18:43.148Z,22.65
2023-03-12T19:21:10.152Z,28.40
2023-03-12T19:23:37.108Z,26.73
2023-03-12T19:26:05.078Z,27.42
2023-03-12T19:28:32.315Z,23.00
2023-03-12T19:31:06.286Z,21.50
2023-03-12T19:33:33.353Z,25.88
2023-03-12T19:36:00.534Z,28.27
2023-03-12T19:38:27.547Z,27.58
2023-03-12T19:40:57.214Z,25.17
2023-03-12T19:43:25.453Z,24.73
2023-03-12T19:45:54.799Z,23.30
2023-03-12T19:48:23.243Z,23.00
2023-03-12T19:50:51.467Z,29.98
2023-03-12T19:53:19.639Z,28.38
2023-03-12T19:55:48.811Z,21.38
2023-03-12T19:58:16.751Z,24.10
2023-03-12T20:00:44.163Z,18.92
2023-03-12T20:03:11.245Z,23.90
2023-03-12T20:05:38.659Z,30.02
2023-03-12T20:08:08.905Z,24.90
2023-03-12T20:10:35.883Z,23.98
2023-03-12T20:13:02.893Z,20.77
2023-03-12T20:15:29.927Z,24.08
2023-03-12T20:17:58.341Z,49.92
2023-03-12T20:20:26.180Z,30.77
2023-03-12T20:22:53.209Z,32.25
2023-03-12T20:25:20.213Z,25.42
2023-03-12T20:27:47.261Z,25.38
2023-03-12T20:30:14.731Z,25.10
2023-03-12T20:32:42.757Z,41.90
2023-03-12T20:35:10.451Z,693.85
2023-03-12T20:37:37.430Z,381.27
2023-03-12T20:40:05.678Z,256.75
2023-03-12T20:42:32.865Z,268.35
2023-03-12T20:45:00.096Z,254.07
2023-03-12T20:47:27.102Z,126.60
2023-03-12T20:49:54.097Z,36.95
2023-03-12T20:52:21.009Z,31.05
2023-03-12T20:54:48.064Z,23.48
2023-03-12T20:57:15.111Z,28.33
2023-03-12T20:59:41.998Z,33.88
2023-03-12T21:02:14.084Z,28.17
2023-03-12T21:04:42.883Z,21.75
2023-03-12T21:07:09.886Z,26.77
2023-03-12T21:09:37.024Z,27.48
2023-03-12T21:12:04.330Z,25.60
2023-03-12T21:14:31.329Z,22.50
2023-03-12T21:16:58.270Z,21.23
2023-03-12T21:19:27.021Z,24.35
2023-03-12T21:21:53.986Z,23.30
2023-03-12T21:24:20.947Z,25.98
2023-03-12T21:26:47.922Z,26.83
2023-03-12T21:29:14.895Z,24.15
2023-03-12T21:31:41.840Z,31.60
2023-03-12T21:34:09.654Z,25.38
2023-03-12T21:36:36.743Z,20.08
2023-03-12T21:39:03.735Z,28.42
2023-03-12T21:41:30.744Z,21.15
2023-03-12T21:44:02.475Z,22.10
2023-03-12T21:46:30.527Z,28.83
2023-03-12T21:48:58.711Z,24.70
2023-03-12T21:51:27.045Z,26.75
2023-03-12T21:53:56.641Z,23.23
2023-03-12T21:56:27.970Z,19.67
2023-03-12T21:58:57.038Z,19.23
2023-03-12T22:01:24.744Z,27.25
2023-03-12T22:03:52.273Z,24.10
2023-03-12T22:06:20.268Z,20.67
2023-03-12T22:08:52.186Z,22.63
2023-03-12T22:11:19.411Z,21.70
2023-03-12T22:13:46.402Z,20.08
2023-03-12T22:16:15.230Z,21.88
2023-03-12T22:18:45.144Z,16.67
2023-03-12T22:21:23.984Z,19.42
2023-03-12T22:23:53.645Z,19.15
2023-03-12T22:26:23.743Z,23.85
2023-03-12T22:28:57.263Z,17.00
2023-03-12T22:31:27.893Z,18.60
2023-03-12T22:33:56.151Z,22.13
2023-03-12T22:36:23.839Z,13.63
2023-03-12T22:38:51.427Z,22.48
2023-03-12T22:41:29.245Z,18.90
2023-03-12T22:44:02.070Z,21.30
2023-03-12T22:46:29.682Z,20.50
2023-03-12T22:49:01.116Z,16.55
2023-03-12T22:51:30.599Z,17.75
2023-03-12T22:53:57.764Z,23.50
2023-03-12T22:56:25.220Z,16.33
2023-03-12T22:58:52.458Z,20.35
2023-03-12T23:01:22.281Z,18.88
2023-03-12T23:03:51.272Z,15.20
2023-03-12T23:06:26.301Z,15.30
2023-03-12T23:08:57.144Z,17.00
2023-03-12T23:11:28.015Z,22.92
2023-03-12T23:13:55.434Z,18.08
2023-03-12T23:16:26.277Z,16.77
2023-03-12T23:18:53.896Z,14.63
2023-03-12T23:21:23.651Z,15.50
2023-03-12T23:23:51.335Z,15.00
2023-03-12T23:26:26.554Z,24.58
2023-03-12T23:28:56.274Z,20.00
2023-03-12T23:31:23.832Z,16.95
2023-03-12T23:33:51.032Z,15.80
2023-03-12T23:36:21.661Z,16.52
2023-03-12T23:38:50.122Z,22.02
2023-03-12T23:41:27.015Z,19.27
2023-03-12T23:43:53.975Z,16.30
2023-03-12T23:46:21.048Z,19.60
2023-03-12T23:48:49.189Z,16.58
2023-03-12T23:51:24.885Z,16.98
2023-03-12T23:53:57.829Z,17.75
2023-03-12T23:56:29.542Z,17.45
2023-03-12T23:58:56.486Z,19.27
